sensor_id;sensor_type;location;lat;lon;timestamp;pressure;altitude;pressure_sealevel;temperature;humidity
75538;BME280;64121;48.666;8.114;2023-05-10T00:02:06;99514.19;;;13.44;100.00
75538;BME280;64121;48.666;8.114;2023-05-10T00:04:31;99515.34;;;13.39;100.00
75538;BME280;64121;48.666;8.114;2023-05-10T00:06:58;99512.47;;;13.36;100.00
75538;BME280;64121;48.666;8.114;2023-05-10T00:09:23;99506.56;;;13.41;100.00
75538;BME280;64121;48.666;8.114;2023-05-10T00:11:49;99517.41;;;13.46;100.00
75538;BME280;64121;48.666;8.114;2023-05-10T00:14:14;99518.22;;;13.46;100.00
75538;BME280;64121;48.666;8.114;2023-05-10T00:16:39;99514.63;;;13.46;100.00
75538;BME280;64121;48.666;8.114;2023-05-10T00:19:05;99525.00;;;13.45;100.00
75538;BME280;64121;48.666;8.114;2023-05-10T00:21:30;99525.38;;;13.44;100.00
75538;BME280;64121;48.666;8.114;2023-05-10T00:23:57;99519.03;;;13.47;100.00
75538;BME280;64121;48.666;8.114;2023-05-10T00:26:22;99524.19;;;13.45;100.00
75538;BME280;64121;48.666;8.114;2023-05-10T00:28:47;99532.22;;;13.50;100.00
75538;BME280;64121;48.666;8.114;2023-05-10T00:31:13;99533.50;;;13.56;100.00
75538;BME280;64121;48.666;8.114;2023-05-10T00:33:38;99527.16;;;13.59;100.00
75538;BME280;64121;48.666;8.114;2023-05-10T00:36:04;99528.34;;;13.58;100.00
75538;BME280;64121;48.666;8.114;2023-05-10T00:38:29;99527.16;;;13.59;100.00
75538;BME280;64121;48.666;8.114;2023-05-10T00:40:56;99525.09;;;13.56;100.00
75538;BME280;64121;48.666;8.114;2023-05-10T00:43:21;99527.97;;;13.59;100.00
75538;BME280;64121;48.666;8.114;2023-05-10T00:45:47;99528.78;;;13.60;100.00
75538;BME280;64121;48.666;8.114;2023-05-10T00:48:12;99535.56;;;13.59;100.00
75538;BME280;64121;48.666;8.114;2023-05-10T00:50:38;99530.78;;;13.59;100.00
75538;BME280;64121;48.666;8.114;2023-05-10T00:53:04;99525.19;;;13.59;100.00
75538;BME280;64121;48.666;8.114;2023-05-10T00:55:30;99530.78;;;13.59;100.00
75538;BME280;64121;48.666;8.114;2023-05-10T00:57:56;99531.56;;;13.60;100.00
75538;BME280;64121;48.666;8.114;2023-05-10T01:00:22;99529.50;;;13.57;100.00
75538;BME280;64121;48.666;8.114;2023-05-10T01:02:47;99529.91;;;13.55;100.00
75538;BME280;64121;48.666;8.114;2023-05-10T01:05:13;99527.09;;;13.55;100.00
75538;BME280;64121;48.666;8.114;2023-05-10T01:07:38;99527.91;;;13.56;100.00
75538;BME280;64121;48.666;8.114;2023-05-10T01:10:04;99523.50;;;13.55;100.00
75538;BME280;64121;48.666;8.114;2023-05-10T01:12:30;99528.72;;;13.56;100.00
75538;BME280;64121;48.666;8.114;2023-05-10T01:14:57;99523.50;;;13.55;100.00
75538;BME280;64121;48.666;8.114;2023-05-10T01:17:22;99519.09;;;13.54;100.00
75538;BME280;64121;48.666;8.114;2023-05-10T01:19:48;99513.50;;;13.54;100.00
75538;BME280;64121;48.666;8.114;2023-05-10T01:22:30;99506.69;;;13.51;100.00
75538;BME280;64121;48.666;8.114;2023-05-10T01:25:25;99502.75;;;13.56;100.00
75538;BME280;64121;48.666;8.114;2023-05-10T01:28:02;99503.56;;;13.56;100.00
75538;BME280;64121;48.666;8.114;2023-05-10T01:33:33;99515.53;;;13.57;100.00
75538;BME280;64121;48.666;8.114;2023-05-10T01:36:05;99517.53;;;13.56;100.00
75538;BME280;64121;48.666;8.114;2023-05-10T01:38:38;99519.09;;;13.54;100.00
75538;BME280;64121;48.666;8.114;2023-05-10T01:41:13;99521.91;;;13.54;100.00
75538;BME280;64121;48.666;8.114;2023-05-10T01:43:45;99524.31;;;13.55;100.00
75538;BME280;64121;48.666;8.114;2023-05-10T01:46:16;99519.88;;;13.51;100.00
75538;BME280;64121;48.666;8.114;2023-05-10T01:48:47;99527.41;;;13.47;100.00
75538;BME280;64121;48.666;8.114;2023-05-10T01:51:16;99522.66;;;13.51;100.00
75538;BME280;64121;48.666;8.114;2023-05-10T01:53:46;99525.78;;;13.46;100.00
75538;BME280;64121;48.666;8.114;2023-05-10T01:56:13;99530.53;;;13.42;100.00
75538;BME280;64121;48.666;8.114;2023-05-10T01:58:43;99533.72;;;13.40;100.00
75538;BME280;64121;48.666;8.114;2023-05-10T02:01:10;99527.78;;;13.45;100.00
75538;BME280;64121;48.666;8.114;2023-05-10T02:03:35;99532.56;;;13.45;100.00
75538;BME280;64121;48.666;8.114;2023-05-10T02:06:05;99527.38;;;13.43;100.00
75538;BME280;64121;48.666;8.114;2023-05-10T02:08:31;99530.59;;;13.45;100.00
75538;BME280;64121;48.666;8.114;2023-05-10T02:10:58;99526.97;;;13.45;100.00
75538;BME280;64121;48.666;8.114;2023-05-10T02:13:25;99534.13;;;13.42;100.00
75538;BME280;64121;48.666;8.114;2023-05-10T02:15:53;99546.44;;;13.38;100.00
75538;BME280;64121;48.666;8.114;2023-05-10T02:18:19;99544.44;;;13.38;100.00
75538;BME280;64121;48.666;8.114;2023-05-10T02:20:46;99550.41;;;13.37;100.00
75538;BME280;64121;48.666;8.114;2023-05-10T02:23:13;99557.13;;;13.32;100.00
75538;BME280;64121;48.666;8.114;2023-05-10T02:25:42;99567.50;;;13.31;100.00
75538;BME280;64121;48.666;8.114;2023-05-10T02:28:09;99572.97;;;13.21;100.00
75538;BME280;64121;48.666;8.114;2023-05-10T02:30:36;99573.22;;;13.16;100.00
75538;BME280;64121;48.666;8.114;2023-05-10T02:33:03;99575.56;;;13.10;100.00
75538;BME280;64121;48.666;8.114;2023-05-10T02:35:29;99563.94;;;13.08;100.00
75538;BME280;64121;48.666;8.114;2023-05-10T02:37:56;99565.50;;;13.06;100.00
75538;BME280;64121;48.666;8.114;2023-05-10T02:40:25;99576.25;;;13.03;100.00
75538;BME280;64121;48.666;8.114;2023-05-10T02:42:55;99580.28;;;13.06;100.00
75538;BME280;64121;48.666;8.114;2023-05-10T02:45:24;99573.50;;;13.07;100.00
75538;BME280;64121;48.666;8.114;2023-05-10T02:47:50;99567.13;;;13.07;100.00
75538;BME280;64121;48.666;8.114;2023-05-10T02:50:16;99565.19;;;13.11;100.00
75538;BME280;64121;48.666;8.114;2023-05-10T02:52:44;99560.31;;;13.04;100.00
75538;BME280;64121;48.666;8.114;2023-05-10T02:55:13;99561.88;;;13.01;100.00
75538;BME280;64121;48.666;8.114;2023-05-10T02:57:45;99573.09;;;13.05;100.00
75538;BME280;64121;48.666;8.114;2023-05-10T03:00:13;99566.63;;;13.01;100.00
75538;BME280;64121;48.666;8.114;2023-05-10T03:02:39;99561.41;;;12.99;100.00
75538;BME280;64121;48.666;8.114;2023-05-10T03:05:04;99565.88;;;13.04;100.00
75538;BME280;64121;48.666;8.114;2023-05-10T03:07:30;99573.03;;;13.01;100.00
75538;BME280;64121;48.666;8.114;2023-05-10T03:09:55;99572.56;;;12.99;100.00
75538;BME280;64121;48.666;8.114;2023-05-10T03:12:31;99572.97;;;12.98;100.00
75538;BME280;64121;48.666;8.114;2023-05-10T03:15:02;99572.09;;;12.94;100.00
75538;BME280;64121;48.666;8.114;2023-05-10T03:17:30;99571.34;;;12.97;100.00
75538;BME280;64121;48.666;8.114;2023-05-10T03:20:04;99570.91;;;12.95;100.00
75538;BME280;64121;48.666;8.114;2023-05-10T03:22:34;99567.69;;;12.93;100.00
75538;BME280;64121;48.666;8.114;2023-05-10T03:25:00;99566.50;;;12.94;100.00
75538;BME280;64121;48.666;8.114;2023-05-10T03:27:29;99565.75;;;12.97;100.00
75538;BME280;64121;48.666;8.114;2023-05-10T03:29:56;99574.94;;;12.97;100.00
75538;BME280;64121;48.666;8.114;2023-05-10T03:32:24;99572.56;;;12.99;100.00
75538;BME280;64121;48.666;8.114;2023-05-10T03:34:49;99574.56;;;12.99;100.00
75538;BME280;64121;48.666;8.114;2023-05-10T03:37:15;99571.78;;;12.99;100.00
75538;BME280;64121;48.666;8.114;2023-05-10T03:39:40;99578.13;;;12.96;100.00
75538;BME280;64121;48.666;8.114;2023-05-10T03:42:05;99578.53;;;12.98;100.00
75538;BME280;64121;48.666;8.114;2023-05-10T03:44:31;99579.34;;;12.98;100.00
75538;BME280;64121;48.666;8.114;2023-05-10T03:46:56;99580.16;;;12.99;100.00
75538;BME280;64121;48.666;8.114;2023-05-10T03:49:23;99574.09;;;12.93;100.00
75538;BME280;64121;48.666;8.114;2023-05-10T03:51:48;99577.31;;;12.95;100.00
75538;BME280;64121;48.666;8.114;2023-05-10T03:54:14;99576.88;;;12.93;100.00
75538;BME280;64121;48.666;8.114;2023-05-10T03:56:39;99582.09;;;12.95;100.00
75538;BME280;64121;48.666;8.114;2023-05-10T03:59:04;99585.25;;;12.93;100.00
75538;BME280;64121;48.666;8.114;2023-05-10T04:01:29;99572.91;;;12.94;100.00
75538;BME280;64121;48.666;8.114;2023-05-10T04:03:55;99575.28;;;12.92;100.00
75538;BME280;64121;48.666;8.114;2023-05-10T04:06:21;99578.06;;;12.92;100.00
75538;BME280;64121;48.666;8.114;2023-05-10T04:08:47;99576.44;;;12.91;100.00
75538;BME280;64121;48.666;8.114;2023-05-10T04:11:12;99573.28;;;12.93;100.00
75538;BME280;64121;48.666;8.114;2023-05-10T04:13:38;99579.63;;;12.90;100.00
75538;BME280;64121;48.666;8.114;2023-05-10T04:16:04;99581.28;;;12.94;100.00
75538;BME280;64121;48.666;8.114;2023-05-10T04:18:29;99588.53;;;12.99;100.00
75538;BME280;64121;48.666;8.114;2023-05-10T04:20:57;99584.56;;;13.00;100.00
75538;BME280;64121;48.666;8.114;2023-05-10T04:23:24;99581.34;;;12.98;100.00
75538;BME280;64121;48.666;8.114;2023-05-10T04:25:49;99583.13;;;13.10;100.00
75538;BME280;64121;48.666;8.114;2023-05-10T04:28:15;99579.78;;;13.00;100.00
75538;BME280;64121;48.666;8.114;2023-05-10T04:30:40;99592.22;;;13.03;100.00
75538;BME280;64121;48.666;8.114;2023-05-10T04:33:05;99593.81;;;13.04;100.00
75538;BME280;64121;48.666;8.114;2023-05-10T04:35:31;99600.75;;;13.14;100.00
75538;BME280;64121;48.666;8.114;2023-05-10T04:37:56;99595.09;;;13.10;100.00
75538;BME280;64121;48.666;8.114;2023-05-10T04:40:23;99593.13;;;13.11;100.00
75538;BME280;64121;48.666;8.114;2023-05-10T04:42:49;99593.91;;;13.11;100.00
75538;BME280;64121;48.666;8.114;2023-05-10T04:45:14;99595.16;;;13.14;100.00
75538;BME280;64121;48.666;8.114;2023-05-10T04:47:39;99594.94;;;13.22;100.00
75538;BME280;64121;48.666;8.114;2023-05-10T04:50:06;99593.78;;;13.27;100.00
75538;BME280;64121;48.666;8.114;2023-05-10T04:52:31;99592.13;;;13.22;100.00
75538;BME280;64121;48.666;8.114;2023-05-10T04:54:57;99593.31;;;13.21;100.00
75538;BME280;64121;48.666;8.114;2023-05-10T04:57:23;99600.09;;;13.20;100.00
75538;BME280;64121;48.666;8.114;2023-05-10T04:59:49;99600.94;;;13.24;100.00
75538;BME280;64121;48.666;8.114;2023-05-10T05:02:14;99603.31;;;13.22;100.00
75538;BME280;64121;48.666;8.114;2023-05-10T05:04:39;99600.53;;;13.22;100.00
75538;BME280;64121;48.666;8.114;2023-05-10T05:07:05;99605.81;;;13.31;100.00
75538;BME280;64121;48.666;8.114;2023-05-10T05:09:30;99614.22;;;13.31;100.00
75538;BME280;64121;48.666;8.114;2023-05-10T05:11:55;99601.91;;;13.36;100.00
75538;BME280;64121;48.666;8.114;2023-05-10T05:14:22;99613.16;;;13.39;100.00
75538;BME280;64121;48.666;8.114;2023-05-10T05:16:47;99617.19;;;13.42;100.00
75538;BME280;64121;48.666;8.114;2023-05-10T05:19:13;99621.28;;;13.51;100.00
75538;BME280;64121;48.666;8.114;2023-05-10T05:21:38;99624.13;;;13.55;100.00
75538;BME280;64121;48.666;8.114;2023-05-10T05:24:04;99632.22;;;13.60;99.95
75538;BME280;64121;48.666;8.114;2023-05-10T05:26:30;99619.34;;;13.55;100.00
75538;BME280;64121;48.666;8.114;2023-05-10T05:28:55;99627.03;;;13.62;99.92
75538;BME280;64121;48.666;8.114;2023-05-10T05:31:22;99626.72;;;13.67;99.51
75538;BME280;64121;48.666;8.114;2023-05-10T05:33:47;99626.34;;;13.69;99.15
75538;BME280;64121;48.666;8.114;2023-05-10T05:36:12;99639.00;;;13.59;99.63
75538;BME280;64121;48.666;8.114;2023-05-10T05:38:38;99638.53;;;13.57;100.00
75538;BME280;64121;48.666;8.114;2023-05-10T05:41:03;99644.13;;;13.57;100.00
75538;BME280;64121;48.666;8.114;2023-05-10T05:43:29;99644.13;;;13.57;100.00
75538;BME280;64121;48.666;8.114;2023-05-10T05:45:54;99650.47;;;13.54;100.00
75538;BME280;64121;48.666;8.114;2023-05-10T05:48:21;99658.72;;;13.43;100.00
75538;BME280;64121;48.666;8.114;2023-05-10T05:50:46;99654.84;;;13.51;100.00
75538;BME280;64121;48.666;8.114;2023-05-10T05:53:11;99652.50;;;13.57;100.00
75538;BME280;64121;48.666;8.114;2023-05-10T05:55:37;99657.28;;;13.56;100.00
75538;BME280;64121;48.666;8.114;2023-05-10T05:58:02;99660.56;;;13.58;100.00
75538;BME280;64121;48.666;8.114;2023-05-10T06:00:28;99664.88;;;13.56;100.00
75538;BME280;64121;48.666;8.114;2023-05-10T06:02:53;99666.19;;;13.62;100.00
75538;BME280;64121;48.666;8.114;2023-05-10T06:05:20;99669.03;;;13.66;100.00
75538;BME280;64121;48.666;8.114;2023-05-10T06:07:45;99670.59;;;13.63;100.00
75538;BME280;64121;48.666;8.114;2023-05-10T06:10:10;99665.34;;;13.58;100.00
75538;BME280;64121;48.666;8.114;2023-05-10T06:12:36;99672.16;;;13.60;100.00
75538;BME280;64121;48.666;8.114;2023-05-10T06:15:01;99669.66;;;13.55;99.57
75538;BME280;64121;48.666;8.114;2023-05-10T06:17:27;99673.97;;;13.49;98.67
75538;BME280;64121;48.666;8.114;2023-05-10T06:19:52;99672.91;;;13.57;98.30
75538;BME280;64121;48.666;8.114;2023-05-10T06:22:19;99680.84;;;13.55;98.36
75538;BME280;64121;48.666;8.114;2023-05-10T06:24:44;99677.25;;;13.55;98.08
75538;BME280;64121;48.666;8.114;2023-05-10T06:27:09;99680.94;;;13.59;98.24
75538;BME280;64121;48.666;8.114;2023-05-10T06:29:35;99680.94;;;13.59;98.41
75538;BME280;64121;48.666;8.114;2023-05-10T06:32:00;99682.97;;;13.62;97.94
75538;BME280;64121;48.666;8.114;2023-05-10T06:34:25;99694.19;;;13.66;98.75
75538;BME280;64121;48.666;8.114;2023-05-10T06:36:51;99685.00;;;13.65;98.52
75538;BME280;64121;48.666;8.114;2023-05-10T06:39:17;99680.97;;;13.62;98.64
75538;BME280;64121;48.666;8.114;2023-05-10T06:41:43;99694.16;;;13.62;99.75
75538;BME280;64121;48.666;8.114;2023-05-10T06:44:08;99686.66;;;13.70;100.00
75538;BME280;64121;48.666;8.114;2023-05-10T06:46:33;99696.69;;;13.74;99.92
75538;BME280;64121;48.666;8.114;2023-05-10T06:48:59;99699.06;;;13.72;99.56
75538;BME280;64121;48.666;8.114;2023-05-10T06:51:24;99698.78;;;13.77;99.44
75538;BME280;64121;48.666;8.114;2023-05-10T06:53:49;99708.69;;;13.75;99.12
75538;BME280;64121;48.666;8.114;2023-05-10T06:56:16;99710.81;;;13.81;98.89
75538;BME280;64121;48.666;8.114;2023-05-10T06:58:41;99708.09;;;13.88;98.31
75538;BME280;64121;48.666;8.114;2023-05-10T07:01:07;99717.78;;;13.94;97.93
75538;BME280;64121;48.666;8.114;2023-05-10T07:03:33;99711.53;;;14.05;97.58
75538;BME280;64121;48.666;8.114;2023-05-10T07:06:02;99712.72;;;14.04;97.74
75538;BME280;64121;48.666;8.114;2023-05-10T07:08:27;99709.91;;;14.04;97.35
75538;BME280;64121;48.666;8.114;2023-05-10T07:10:52;99703.22;;;14.12;97.37
75538;BME280;64121;48.666;8.114;2023-05-10T07:13:19;99706.56;;;14.21;96.67
75538;BME280;64121;48.666;8.114;2023-05-10T07:15:44;99712.97;;;14.21;96.68
75538;BME280;64121;48.666;8.114;2023-05-10T07:18:10;99703.84;;;14.28;96.43
75538;BME280;64121;48.666;8.114;2023-05-10T07:20:35;99702.19;;;14.23;95.94
75538;BME280;64121;48.666;8.114;2023-05-10T07:23:00;99707.34;;;14.21;96.62
75538;BME280;64121;48.666;8.114;2023-05-10T07:25:26;99705.41;;;14.25;96.35
75538;BME280;64121;48.666;8.114;2023-05-10T07:27:53;99707.28;;;14.14;95.75
75538;BME280;64121;48.666;8.114;2023-05-10T07:30:19;99707.50;;;14.02;95.74
75538;BME280;64121;48.666;8.114;2023-05-10T07:32:45;99721.97;;;14.08;97.01
75538;BME280;64121;48.666;8.114;2023-05-10T07:35:10;99724.06;;;14.14;96.73
75538;BME280;64121;48.666;8.114;2023-05-10T07:37:35;99724.50;;;14.16;97.38
75538;BME280;64121;48.666;8.114;2023-05-10T07:40:01;99726.53;;;14.19;95.90
75538;BME280;64121;48.666;8.114;2023-05-10T07:42:26;99726.66;;;14.30;94.97
75538;BME280;64121;48.666;8.114;2023-05-10T07:44:51;99725.00;;;14.25;94.20
75538;BME280;64121;48.666;8.114;2023-05-10T07:47:18;99725.84;;;14.30;93.44
75538;BME280;64121;48.666;8.114;2023-05-10T07:49:43;99724.34;;;14.36;93.19
75538;BME280;64121;48.666;8.114;2023-05-10T07:52:09;99734.34;;;14.37;92.27
75538;BME280;64121;48.666;8.114;2023-05-10T07:54:34;99734.38;;;14.40;92.22
75538;BME280;64121;48.666;8.114;2023-05-10T07:56:59;99740.41;;;14.42;91.23
75538;BME280;64121;48.666;8.114;2023-05-10T07:59:25;99739.56;;;14.38;89.91
75538;BME280;64121;48.666;8.114;2023-05-10T08:01:51;99740.00;;;14.40;90.38
75538;BME280;64121;48.666;8.114;2023-05-10T08:04:17;99746.72;;;14.36;88.18
75538;BME280;64121;48.666;8.114;2023-05-10T08:06:43;99746.38;;;14.41;88.79
75538;BME280;64121;48.666;8.114;2023-05-10T08:09:08;99752.63;;;14.57;89.33
75538;BME280;64121;48.666;8.114;2023-05-10T08:11:33;99754.28;;;14.62;87.93
75538;BME280;64121;48.666;8.114;2023-05-10T08:13:59;99751.19;;;14.70;87.32
75538;BME280;64121;48.666;8.114;2023-05-10T08:16:24;99749.19;;;14.71;88.66
75538;BME280;64121;48.666;8.114;2023-05-10T08:18:50;99744.13;;;14.83;88.91
75538;BME280;64121;48.666;8.114;2023-05-10T08:21:17;99748.63;;;14.92;87.93
75538;BME280;64121;48.666;8.114;2023-05-10T08:23:42;99748.72;;;15.02;87.87
75538;BME280;64121;48.666;8.114;2023-05-10T08:26:07;99752.81;;;15.08;88.88
75538;BME280;64121;48.666;8.114;2023-05-10T08:28:33;99747.69;;;15.18;88.25
75538;BME280;64121;48.666;8.114;2023-05-10T08:30:58;99747.38;;;15.26;85.69
75538;BME280;64121;48.666;8.114;2023-05-10T08:33:23;99746.25;;;15.34;84.66
75538;BME280;64121;48.666;8.114;2023-05-10T08:35:49;99748.16;;;15.67;83.89
75538;BME280;64121;48.666;8.114;2023-05-10T08:38:16;99744.22;;;15.79;82.87
75538;BME280;64121;48.666;8.114;2023-05-10T08:40:42;99748.22;;;15.78;85.09
75538;BME280;64121;48.666;8.114;2023-05-10T08:43:10;99748.22;;;15.78;84.25
75538;BME280;64121;48.666;8.114;2023-05-10T08:45:38;99768.91;;;14.48;83.92
75538;BME280;64121;48.666;8.114;2023-05-10T08:48:05;99776.03;;;14.15;85.65
75538;BME280;64121;48.666;8.114;2023-05-10T08:50:32;99776.56;;;13.72;85.51
75538;BME280;64121;48.666;8.114;2023-05-10T08:53:00;99782.97;;;13.72;84.95
75538;BME280;64121;48.666;8.114;2023-05-10T08:55:27;99778.94;;;13.70;86.33
75538;BME280;64121;48.666;8.114;2023-05-10T08:57:53;99785.28;;;13.67;87.14
75538;BME280;64121;48.666;8.114;2023-05-10T09:00:19;99793.03;;;13.54;88.28
75538;BME280;64121;48.666;8.114;2023-05-10T09:02:45;99795.22;;;13.64;88.63
75538;BME280;64121;48.666;8.114;2023-05-10T09:05:10;99800.09;;;13.71;88.40
75538;BME280;64121;48.666;8.114;2023-05-10T09:07:36;99812.81;;;13.64;87.96
75538;BME280;64121;48.666;8.114;2023-05-10T09:10:02;99807.38;;;13.75;89.08
75538;BME280;64121;48.666;8.114;2023-05-10T09:12:29;99812.06;;;13.94;89.44
75538;BME280;64121;48.666;8.114;2023-05-10T09:14:55;99819.50;;;14.09;88.02
75538;BME280;64121;48.666;8.114;2023-05-10T09:17:23;99819.34;;;13.99;87.69
75538;BME280;64121;48.666;8.114;2023-05-10T09:19:49;99820.91;;;13.96;87.28
75538;BME280;64121;48.666;8.114;2023-05-10T09:22:14;99823.22;;;14.17;87.22
75538;BME280;64121;48.666;8.114;2023-05-10T09:24:39;99821.00;;;14.30;90.18
75538;BME280;64121;48.666;8.114;2023-05-10T09:27:06;99813.38;;;14.27;88.69
75538;BME280;64121;48.666;8.114;2023-05-10T09:29:41;99826.16;;;14.50;89.01
75538;BME280;64121;48.666;8.114;2023-05-10T09:32:07;99827.94;;;14.66;87.80
75538;BME280;64121;48.666;8.114;2023-05-10T09:34:32;99833.38;;;14.85;86.82
75538;BME280;64121;48.666;8.114;2023-05-10T09:36:59;99829.78;;;14.84;87.07
75538;BME280;64121;48.666;8.114;2023-05-10T09:39:31;99824.91;;;15.11;83.85
75538;BME280;64121;48.666;8.114;2023-05-10T09:41:57;99820.13;;;15.53;84.06
75538;BME280;64121;48.666;8.114;2023-05-10T09:44:23;99820.34;;;15.74;83.93
75538;BME280;64121;48.666;8.114;2023-05-10T09:46:51;99819.03;;;16.16;83.22
75538;BME280;64121;48.666;8.114;2023-05-10T09:49:17;99812.84;;;16.51;78.86
75538;BME280;64121;48.666;8.114;2023-05-10T09:51:42;99816.50;;;16.58;79.25
75538;BME280;64121;48.666;8.114;2023-05-10T09:54:12;99811.78;;;16.73;79.65
75538;BME280;64121;48.666;8.114;2023-05-10T09:56:38;99810.97;;;16.73;78.37
75538;BME280;64121;48.666;8.114;2023-05-10T09:59:03;99807.75;;;16.71;78.10
75538;BME280;64121;48.666;8.114;2023-05-10T10:01:29;99801.75;;;16.72;79.86
75538;BME280;64121;48.666;8.114;2023-05-10T10:03:56;99810.28;;;17.01;78.52
75538;BME280;64121;48.666;8.114;2023-05-10T10:06:21;99807.53;;;17.11;75.95
75538;BME280;64121;48.666;8.114;2023-05-10T10:08:47;99812.41;;;17.36;70.07
75538;BME280;64121;48.666;8.114;2023-05-10T10:11:12;99799.94;;;17.37;70.33
75538;BME280;64121;48.666;8.114;2023-05-10T10:13:38;99804.78;;;17.50;68.95
75538;BME280;64121;48.666;8.114;2023-05-10T10:16:04;99803.53;;;17.19;71.27
75538;BME280;64121;48.666;8.114;2023-05-10T10:18:30;99805.09;;;17.06;71.36
75538;BME280;64121;48.666;8.114;2023-05-10T10:20:57;99809.19;;;17.34;72.81
75538;BME280;64121;48.666;8.114;2023-05-10T10:23:23;99800.31;;;17.21;70.86
75538;BME280;64121;48.666;8.114;2023-05-10T10:25:49;99812.34;;;17.11;70.77
75538;BME280;64121;48.666;8.114;2023-05-10T10:28:23;99805.22;;;16.51;70.47
75538;BME280;64121;48.666;8.114;2023-05-10T10:30:51;99808.69;;;16.27;74.59
75538;BME280;64121;48.666;8.114;2023-05-10T10:33:49;99807.09;;;16.26;77.25
75538;BME280;64121;48.666;8.114;2023-05-10T10:36:17;99801.06;;;16.20;73.77
75538;BME280;64121;48.666;8.114;2023-05-10T10:38:57;99798.19;;;16.17;73.75
75538;BME280;64121;48.666;8.114;2023-05-10T10:41:28;99798.59;;;16.15;74.74
75538;BME280;64121;48.666;8.114;2023-05-10T10:44:25;99799.72;;;16.00;77.16
75538;BME280;64121;48.666;8.114;2023-05-10T10:47:23;99796.53;;;16.05;76.03
75538;BME280;64121;48.666;8.114;2023-05-10T10:49:49;99804.72;;;16.35;76.44
75538;BME280;64121;48.666;8.114;2023-05-10T10:52:27;99807.81;;;16.16;77.52
75538;BME280;64121;48.666;8.114;2023-05-10T10:54:58;99813.16;;;15.80;74.59
75538;BME280;64121;48.666;8.114;2023-05-10T10:57:24;99808.50;;;15.54;77.67
75538;BME280;64121;48.666;8.114;2023-05-10T10:59:50;99799.59;;;15.86;76.35
75538;BME280;64121;48.666;8.114;2023-05-10T11:02:34;99810.47;;;15.94;77.47
75538;BME280;64121;48.666;8.114;2023-05-10T11:05:00;99806.84;;;15.90;79.68
75538;BME280;64121;48.666;8.114;2023-05-10T11:07:26;99806.69;;;16.27;77.33
75538;BME280;64121;48.666;8.114;2023-05-10T11:09:52;99808.81;;;16.48;72.49
75538;BME280;64121;48.666;8.114;2023-05-10T11:12:17;99807.78;;;16.74;65.06
75538;BME280;64121;48.666;8.114;2023-05-10T11:14:43;99806.59;;;16.75;67.28
75538;BME280;64121;48.666;8.114;2023-05-10T11:17:23;99820.53;;;16.64;63.90
75538;BME280;64121;48.666;8.114;2023-05-10T11:20:08;99814.03;;;16.46;66.08
75538;BME280;64121;48.666;8.114;2023-05-10T11:25:27;99809.50;;;16.27;66.26
75538;BME280;64121;48.666;8.114;2023-05-10T11:27:52;99808.63;;;16.16;66.83
75538;BME280;64121;48.666;8.114;2023-05-10T11:30:18;99805.06;;;16.23;66.98
75538;BME280;64121;48.666;8.114;2023-05-10T11:32:43;99803.38;;;16.11;65.89
75538;BME280;64121;48.666;8.114;2023-05-10T11:35:10;99818.06;;;16.52;64.60
75538;BME280;64121;48.666;8.114;2023-05-10T11:37:37;99826.34;;;17.04;61.18
75538;BME280;64121;48.666;8.114;2023-05-10T11:40:04;99815.63;;;17.59;59.63
75538;BME280;64121;48.666;8.114;2023-05-10T11:42:31;99820.88;;;18.21;58.57
75538;BME280;64121;48.666;8.114;2023-05-10T11:44:56;99817.25;;;18.35;56.49
75538;BME280;64121;48.666;8.114;2023-05-10T11:47:22;99809.41;;;18.99;64.64
75538;BME280;64121;48.666;8.114;2023-05-10T11:49:47;99808.97;;;19.04;62.17
75538;BME280;64121;48.666;8.114;2023-05-10T11:52:13;99807.53;;;18.61;55.26
75538;BME280;64121;48.666;8.114;2023-05-10T11:54:44;99814.38;;;18.67;53.84
75538;BME280;64121;48.666;8.114;2023-05-10T11:57:10;99819.19;;;18.59;52.00
75538;BME280;64121;48.666;8.114;2023-05-10T11:59:37;99800.38;;;18.17;59.16
75538;BME280;64121;48.666;8.114;2023-05-10T12:02:02;99800.00;;;17.76;60.37
75538;BME280;64121;48.666;8.114;2023-05-10T12:04:28;99806.44;;;17.80;62.14
75538;BME280;64121;48.666;8.114;2023-05-10T12:06:53;99806.41;;;18.26;58.35
75538;BME280;64121;48.666;8.114;2023-05-10T12:09:19;99800.81;;;17.80;59.92
75538;BME280;64121;48.666;8.114;2023-05-10T12:11:44;99795.19;;;17.87;58.93
75538;BME280;64121;48.666;8.114;2023-05-10T12:14:09;99798.72;;;18.34;56.19
75538;BME280;64121;48.666;8.114;2023-05-10T12:16:36;99801.63;;;17.88;55.78
75538;BME280;64121;48.666;8.114;2023-05-10T12:19:02;99791.53;;;18.11;60.47
75538;BME280;64121;48.666;8.114;2023-05-10T12:21:28;99785.06;;;18.22;61.66
75538;BME280;64121;48.666;8.114;2023-05-10T12:23:56;99792.22;;;18.69;58.47
75538;BME280;64121;48.666;8.114;2023-05-10T12:26:24;99796.69;;;18.49;54.77
75538;BME280;64121;48.666;8.114;2023-05-10T12:28:50;99783.09;;;17.94;56.57
75538;BME280;64121;48.666;8.114;2023-05-10T12:31:15;99784.31;;;18.00;59.17
75538;BME280;64121;48.666;8.114;2023-05-10T12:33:43;99786.75;;;17.91;59.50
75538;BME280;64121;48.666;8.114;2023-05-10T12:36:09;99784.28;;;17.64;59.89
75538;BME280;64121;48.666;8.114;2023-05-10T12:38:36;99788.69;;;17.40;60.50
75538;BME280;64121;48.666;8.114;2023-05-10T12:41:04;99795.84;;;17.09;61.82
75538;BME280;64121;48.666;8.114;2023-05-10T12:43:29;99787.81;;;16.97;62.65
75538;BME280;64121;48.666;8.114;2023-05-10T12:45:55;99788.59;;;17.01;62.44
75538;BME280;64121;48.666;8.114;2023-05-10T12:48:20;99799.06;;;17.01;61.26
75538;BME280;64121;48.666;8.114;2023-05-10T12:50:47;99808.63;;;16.89;61.08
75538;BME280;64121;48.666;8.114;2023-05-10T12:53:13;99808.06;;;16.55;63.11
75538;BME280;64121;48.666;8.114;2023-05-10T12:55:38;99797.88;;;16.29;67.67
75538;BME280;64121;48.666;8.114;2023-05-10T12:58:03;99804.88;;;16.56;63.65
75538;BME280;64121;48.666;8.114;2023-05-10T13:00:28;99801.06;;;17.00;65.55